This is the latest recevied weather packets stored in our database for station/object KY4EF. If no packets are shown the sender has not sent any weather packets the latest 1 day(s).
| Time | Temp. | Humidity | Pressure | Rain* | Wind** | Luminosity | Snow |
|---|---|---|---|---|---|---|---|
| 1836274855 | 16.67° C | 99% | 1019.9 hPa | 0 mm | 0 m/s | 0 W/m² | - |
| 1836274553 | 16.67° C | 99% | 1019.6 hPa | 0 mm | 0 m/s | 0 W/m² | - |
| 1836274407 | 16.67° C | 99% | 1019.7 hPa | 0 mm | 0 m/s | 0 W/m² | - |
| 1836274252 | 16.67° C | 99% | 1019.9 hPa | 0 mm | 0 m/s | 0 W/m² | - |
| 1836273951 | 16.67° C | 99% | 1019.8 hPa | 0 mm | 0 m/s | 0 W/m² | - |
| 1778054449 | 18.33° C | 69% | 1011.1 hPa | 0 mm | 0 m/s | 0 W/m² | - |
| 1778054147 | 18.33° C | 69% | 1011.4 hPa | 0 mm | 0 m/s | 0 W/m² | - |
| 1778053843 | 18.33° C | 68% | 1011.2 hPa | 0 mm | 0 m/s | 0 W/m² | - |
| 1778053541 | 18.33° C | 68% | 1011.2 hPa | 0 mm | 0 m/s | 0 W/m² | - |
| 1778053238 | 18.33° C | 68% | 1011.1 hPa | 0 mm | 0 m/s | 0 W/m² | - |
| 1778052935 | 18.33° C | 66% | 1011 hPa | 0 mm | 0.45 m/s, 21° | 0 W/m² | - |
| 1778052633 | 18.33° C | 65% | 1011.1 hPa | 0 mm | 0 m/s | 0 W/m² | - |
| 1778052330 | 18.33° C | 65% | 1011.2 hPa | 0 mm | 0.45 m/s, 315° | 0 W/m² | - |
| 1778052027 | 18.89° C | 64% | 1011.3 hPa | 0 mm | 0.89 m/s, 354° | 0 W/m² | - |
| 1778051725 | 18.89° C | 63% | 1011.1 hPa | 0 mm | 0 m/s | 0 W/m² | - |
| 1778051422 | 18.89° C | 63% | 1011.3 hPa | 0 mm | 0 m/s | 0 W/m² | - |
| 1778051119 | 18.33° C | 63% | 1011.4 hPa | 0 mm | 0.45 m/s, 14° | 0 W/m² | - |
| 1778050816 | 18.33° C | 63% | 1011.2 hPa | 0 mm | 0 m/s | 0 W/m² | - |
| 1778050514 | 18.33° C | 62% | 1011.4 hPa | 0 mm | 0 m/s | 0 W/m² | - |
| 1778050210 | 18.33° C | 65% | 1011.8 hPa | 0 mm | 0.45 m/s, 143° | 0 W/m² | - |
| 1778049908 | 18.89° C | 62% | 1012 hPa | 0 mm | 0 m/s | 0 W/m² | - |
| 1778049603 | 18.33° C | 60% | 1011.7 hPa | 0 mm | 0 m/s | 0 W/m² | - |
| 1778049301 | 18.89° C | 62% | 1011.8 hPa | 0 mm | 0 m/s | 0 W/m² | - |
| 1778048998 | 18.33° C | 62% | 1012 hPa | 0 mm | 0.45 m/s, 178° | 0 W/m² | - |
| 1778048697 | 18.33° C | 61% | 1012 hPa | 0 mm | 0.45 m/s, 230° | 0 W/m² | - |
* Rain latest hour (hover to see other rain measurements)
** Current wind speed in m/s (hover to see current wind gust speed)